Time;durP1;ratioP1;P1;durP2;ratioP2;P2;SDS_P1;SDS_P2;PMS_P1;PMS_P2;Temp;Humidity;BMP_temperature;BMP_pressure;BME280_temperature;BME280_humidity;BME280_pressure;Samples;Min_cycle;Max_cycle;Signal;HPM_P1;HPM_P2
2021/12/16 00:01:40;;;;;;;2.40;1.95;;;20.70;50.40;;;;;;6243915;28;20033;-67
2021/12/16 00:02:10;;;;;;;2.75;2.15;;;20.70;50.40;;;;;;6267028;28;20821;-68
2021/12/16 00:08:23;;;;;;;2.50;2.10;;;20.70;50.40;;;;;;6256704;28;20035;-68
2021/12/16 00:31:26;;;;;;;3.00;2.25;;;20.70;50.40;;;;;;6246986;28;20096;-67
2021/12/16 00:34:31;;;;;;;2.85;1.92;;;20.70;50.40;;;;;;6245272;28;20079;-67
2021/12/16 00:37:31;;;;;;;;;;;20.70;50.40;;;;;;6256774;28;20133;-67
2021/12/16 00:40:32;;;;;;;2.13;1.80;;;20.70;50.40;;;;;;6267732;28;19912;-68
2021/12/16 00:43:47;;;;;;;2.65;2.05;;;20.70;50.40;;;;;;6264450;28;20050;-68
2021/12/16 00:47:14;;;;;;;2.72;2.13;;;20.70;50.40;;;;;;6266118;28;20021;-67
2021/12/16 00:50:22;;;;;;;2.72;2.00;;;20.70;50.40;;;;;;6267395;28;20037;-67
2021/12/16 00:56:51;;;;;;;2.60;2.10;;;20.70;50.40;;;;;;6267064;28;20028;-68
2021/12/16 00:59:53;;;;;;;3.13;2.15;;;20.70;50.40;;;;;;6267104;28;20025;-67
2021/12/16 01:03:09;;;;;;;2.40;1.92;;;20.70;50.40;;;;;;6267446;28;20021;-68
2021/12/16 01:06:45;;;;;;;3.42;2.05;;;20.70;50.40;;;;;;6266860;28;20055;-68
2021/12/16 01:36:26;;;;;;;1.95;1.75;;;20.70;50.40;;;;;;6244076;28;20422;-68
2021/12/16 01:39:58;;;;;;;2.20;1.80;;;20.70;50.40;;;;;;6265138;28;20029;-68
2021/12/16 01:49:39;;;;;;;2.13;1.92;;;20.70;50.40;;;;;;6266100;28;20028;-68
2021/12/16 01:56:48;;;;;;;2.45;1.85;;;20.70;50.40;;;;;;6237452;28;20427;-68
2021/12/16 01:59:59;;;;;;;3.92;1.92;;;20.70;50.40;;;;;;6240814;28;20418;-67
2021/12/16 02:03:03;;;;;;;2.50;1.98;;;20.70;50.40;;;;;;6252969;28;20053;-68
2021/12/16 02:06:13;;;;;;;2.63;2.13;;;20.70;50.40;;;;;;6242491;28;20014;-67
2021/12/16 02:09:24;;;;;;;2.42;1.70;;;20.70;50.40;;;;;;6260743;28;20180;-67
2021/12/16 02:12:43;;;;;;;2.20;1.67;;;20.70;51.00;;;;;;6261514;28;20036;-68
2021/12/16 02:29:20;;;;;;;2.05;1.73;;;20.70;50.40;;;;;;6265700;28;20048;-68
2021/12/16 02:32:45;;;;;;;;;;;20.70;50.40;;;;;;6254021;28;20406;-68
2021/12/16 02:35:59;;;;;;;2.10;1.80;;;20.70;50.40;;;;;;6241617;28;19960;-68
2021/12/16 02:39:16;;;;;;;2.42;2.03;;;20.70;50.40;;;;;;6265689;28;20086;-68
2021/12/16 02:42:25;;;;;;;2.50;1.83;;;20.70;50.40;;;;;;6264871;28;20655;-67
2021/12/16 02:48:47;;;;;;;2.60;1.98;;;20.70;50.40;;;;;;6243061;28;20052;-67
2021/12/16 02:51:48;;;;;;;2.67;1.80;;;20.70;50.40;;;;;;6244278;28;20032;-67
2021/12/16 02:54:50;;;;;;;3.38;1.67;;;20.70;50.40;;;;;;6265603;28;20017;-68
2021/12/16 02:57:59;;;;;;;2.55;1.77;;;20.70;50.60;;;;;;6264955;28;20056;-68
2021/12/16 03:01:10;;;;;;;2.08;1.67;;;20.70;50.40;;;;;;6265286;28;20509;-68
2021/12/16 03:04:14;;;;;;;2.50;1.92;;;20.70;50.40;;;;;;6267867;28;20031;-68
2021/12/16 03:07:17;;;;;;;2.45;1.90;;;20.70;50.40;;;;;;6263586;28;20241;-68
2021/12/16 03:13:34;;;;;;;2.22;1.92;;;20.70;50.40;;;;;;6251324;28;20056;-68
2021/12/16 03:16:54;;;;;;;2.42;2.00;;;20.70;50.40;;;;;;6245196;28;20105;-68
2021/12/16 03:20:05;;;;;;;2.50;1.95;;;20.70;50.40;;;;;;6244435;28;20386;-67
2021/12/16 03:38:47;;;;;;;2.10;1.80;;;20.70;50.40;;;;;;6268401;28;20230;-68
2021/12/16 03:41:48;;;;;;;2.47;2.08;;;20.70;50.40;;;;;;6269281;28;20025;-68
2021/12/16 03:44:55;;;;;;;2.47;2.00;;;20.70;50.40;;;;;;6269083;28;20317;-68
2021/12/16 03:47:56;;;;;;;1.73;1.52;;;20.70;50.40;;;;;;6257312;28;20075;-67
2021/12/16 03:50:58;;;;;;;2.45;1.75;;;20.70;50.40;;;;;;6244488;28;20044;-68
2021/12/16 03:54:13;;;;;;;1.88;1.52;;;20.70;50.40;;;;;;6244192;28;20057;-68
2021/12/16 03:57:14;;;;;;;2.00;1.70;;;20.70;50.40;;;;;;6249939;28;20138;-68
2021/12/16 04:00:37;;;;;;;2.00;1.80;;;20.70;50.40;;;;;;6243607;28;20025;-68
2021/12/16 04:03:38;;;;;;;1.98;1.60;;;20.70;50.40;;;;;;6260887;28;20033;-66
2021/12/16 04:06:39;;;;;;;2.40;1.70;;;20.70;50.40;;;;;;6268862;28;20040;-68
2021/12/16 04:09:40;;;;;;;1.67;1.48;;;20.70;50.40;;;;;;6245622;28;20025;-67
2021/12/16 04:12:41;;;;;;;1.77;1.65;;;20.70;50.40;;;;;;6243645;28;20376;-67
2021/12/16 04:15:42;;;;;;;1.67;1.35;;;20.70;50.40;;;;;;6241660;28;20077;-67
2021/12/16 04:18:42;;;;;;;2.13;1.70;;;20.70;50.40;;;;;;6253341;28;20033;-67
2021/12/16 04:21:51;;;;;;;2.28;1.55;;;20.70;50.40;;;;;;6241992;28;20037;-67
2021/12/16 04:24:51;;;;;;;2.15;1.80;;;20.70;50.40;;;;;;6263437;28;20021;-67
2021/12/16 04:27:56;;;;;;;2.08;1.48;;;20.70;50.40;;;;;;6267569;28;20390;-67
2021/12/16 04:30:58;;;;;;;1.73;1.40;;;20.70;50.40;;;;;;6261780;28;20029;-67
2021/12/16 04:33:59;;;;;;;2.35;1.70;;;20.70;50.40;;;;;;6247319;28;20029;-67
2021/12/16 04:37:00;;;;;;;2.90;1.73;;;20.70;50.40;;;;;;6243104;28;20035;-67
2021/12/16 04:40:03;;;;;;;2.15;1.70;;;20.70;50.40;;;;;;6243442;28;20025;-67
2021/12/16 04:43:05;;;;;;;1.63;1.50;;;20.70;50.40;;;;;;6259862;28;20025;-67
2021/12/16 04:46:13;;;;;;;1.80;1.52;;;20.70;50.40;;;;;;6267149;28;20070;-67
2021/12/16 04:49:15;;;;;;;1.75;1.50;;;20.70;50.40;;;;;;6243337;28;20108;-66
2021/12/16 04:52:18;;;;;;;2.38;1.45;;;20.70;50.40;;;;;;6251157;28;20032;-66
2021/12/16 04:55:20;;;;;;;2.10;1.65;;;20.70;50.40;;;;;;6267361;28;20475;-67
2021/12/16 04:58:21;;;;;;;2.28;1.60;;;20.70;50.40;;;;;;6266608;28;20032;-67
2021/12/16 05:01:22;;;;;;;2.17;1.60;;;20.70;50.40;;;;;;6267591;28;20033;-66
2021/12/16 05:04:23;;;;;;;1.77;1.48;;;20.70;50.40;;;;;;6267246;28;20021;-67
2021/12/16 05:07:24;;;;;;;2.83;1.30;;;20.70;50.40;;;;;;6267030;28;20025;-67
2021/12/16 05:10:25;;;;;;;2.22;1.45;;;20.70;50.40;;;;;;6266906;28;20502;-68
2021/12/16 05:13:27;;;;;;;1.60;1.33;;;20.70;50.40;;;;;;6266845;28;20041;-66
2021/12/16 05:16:27;;;;;;;1.98;1.50;;;20.70;50.40;;;;;;6266527;28;20033;-67
2021/12/16 05:19:28;;;;;;;1.50;1.30;;;20.70;50.40;;;;;;6260108;28;20026;-67
2021/12/16 05:28:58;;;;;;;1.80;1.40;;;20.70;50.40;;;;;;6259637;28;20086;-67
2021/12/16 05:32:00;;;;;;;1.73;1.40;;;20.70;50.40;;;;;;6257252;28;20025;-67
2021/12/16 05:35:01;;;;;;;1.85;1.52;;;20.70;50.40;;;;;;6241516;28;20025;-67
2021/12/16 05:38:02;;;;;;;1.88;1.40;;;20.70;50.40;;;;;;6259335;28;20044;-67
2021/12/16 05:41:05;;;;;;;1.45;1.17;;;20.70;50.40;;;;;;6265875;28;20031;-67
2021/12/16 05:44:05;;;;;;;2.80;1.55;;;20.70;50.40;;;;;;6242419;28;20051;-67
2021/12/16 05:47:06;;;;;;;2.33;1.77;;;20.70;50.40;;;;;;6236774;28;20722;-67
2021/12/16 05:50:08;;;;;;;1.48;1.23;;;20.70;50.40;;;;;;6242952;28;20044;-68
2021/12/16 05:53:09;;;;;;;1.77;1.30;;;20.70;50.40;;;;;;6233668;28;20357;-66
2021/12/16 05:56:10;;;;;;;2.00;1.35;;;20.70;50.40;;;;;;6239595;28;20030;-66
2021/12/16 05:59:13;;;;;;;1.58;1.48;;;20.70;50.40;;;;;;6244094;28;20037;-67
2021/12/16 06:02:13;;;;;;;4.63;1.35;;;20.70;50.40;;;;;;6238794;28;20381;-68
2021/12/16 06:05:14;;;;;;;2.05;1.35;;;20.70;50.40;;;;;;6239213;28;20546;-67
2021/12/16 06:08:15;;;;;;;2.92;1.55;;;20.70;50.40;;;;;;6249797;28;20021;-67
2021/12/16 06:14:28;;;;;;;2.70;1.40;;;20.70;50.40;;;;;;6255959;28;20069;-67
2021/12/16 06:27:29;;;;;;;4.75;2.40;;;20.70;50.60;;;;;;6249572;28;20021;-68
2021/12/16 06:30:34;;;;;;;6.18;3.15;;;20.70;50.60;;;;;;6259254;28;20407;-67
2021/12/16 06:33:35;;;;;;;;;;;20.70;50.50;;;;;;6247304;28;20017;-67
2021/12/16 06:36:35;;;;;;;8.60;3.70;;;20.70;50.60;;;;;;6263559;28;19911;-67
2021/12/16 06:39:36;;;;;;;6.82;3.17;;;20.70;50.60;;;;;;6266501;28;20336;-68
2021/12/16 06:42:40;;;;;;;7.65;3.10;;;20.70;50.60;;;;;;6257635;28;20036;-66
2021/12/16 06:45:45;;;;;;;6.00;3.38;;;20.70;50.60;;;;;;6264925;28;20371;-68
2021/12/16 06:48:54;;;;;;;6.22;2.90;;;20.70;50.60;;;;;;6243035;28;20447;-67
2021/12/16 06:52:03;;;;;;;4.72;2.83;;;20.70;50.60;;;;;;6249904;28;20033;-68
2021/12/16 06:55:15;;;;;;;5.85;2.70;;;20.70;50.60;;;;;;6269139;28;20032;-68
2021/12/16 06:58:40;;;;;;;5.50;2.78;;;20.70;50.60;;;;;;6261164;28;20159;-68
2021/12/16 07:01:41;;;;;;;4.63;2.85;;;20.70;50.60;;;;;;6252987;28;20025;-68
2021/12/16 07:04:43;;;;;;;7.32;3.28;;;20.70;50.70;;;;;;6246415;28;20029;-68
2021/12/16 07:07:45;;;;;;;6.35;2.78;;;20.70;50.60;;;;;;6249557;28;20025;-68
2021/12/16 07:10:49;;;;;;;6.13;3.08;;;20.70;50.60;;;;;;6245039;28;20163;-68
2021/12/16 07:13:57;;;;;;;9.27;3.10;;;20.70;50.70;;;;;;6246795;28;20065;-68
2021/12/16 07:16:59;;;;;;;4.80;2.60;;;20.70;50.70;;;;;;6247043;28;20611;-68
2021/12/16 07:19:59;;;;;;;6.55;3.40;;;20.80;50.70;;;;;;6269863;28;20100;-68
2021/12/16 07:23:03;;;;;;;5.55;3.17;;;20.70;50.60;;;;;;6262825;28;20363;-68
2021/12/16 07:26:03;;;;;;;4.93;2.85;;;20.70;50.60;;;;;;6257999;28;20017;-68
2021/12/16 07:29:05;;;;;;;6.57;3.55;;;20.80;50.70;;;;;;6254992;28;20049;-69
2021/12/16 07:32:06;;;;;;;4.18;3.13;;;20.80;50.70;;;;;;6258199;28;20034;-68
2021/12/16 07:35:13;;;;;;;5.95;3.10;;;20.80;50.70;;;;;;6244860;28;20406;-68
2021/12/16 07:38:16;;;;;;;5.80;3.22;;;20.80;50.70;;;;;;6257007;28;20079;-68
2021/12/16 07:41:20;;;;;;;5.22;2.92;;;20.80;50.70;;;;;;6268179;28;20025;-68
2021/12/16 07:44:21;;;;;;;6.50;3.75;;;20.80;50.70;;;;;;6260957;28;20025;-67
2021/12/16 07:47:22;;;;;;;5.40;3.33;;;20.80;50.70;;;;;;6264508;28;20033;-68
2021/12/16 07:50:23;;;;;;;6.57;3.60;;;20.80;50.70;;;;;;6259250;28;20044;-66
2021/12/16 07:53:24;;;;;;;6.32;3.47;;;20.80;50.70;;;;;;6250407;28;20032;-67
2021/12/16 07:56:24;;;;;;;7.72;3.58;;;20.80;50.80;;;;;;6253992;28;20037;-67
2021/12/16 07:59:27;;;;;;;7.05;3.70;;;20.70;50.60;;;;;;6247191;28;20159;-67
2021/12/16 08:02:28;;;;;;;11.27;4.45;;;20.70;50.40;;;;;;6250095;28;20171;-67
2021/12/16 08:05:33;;;;;;;11.48;5.07;;;20.70;50.00;;;;;;6245159;28;20018;-68
2021/12/16 08:08:34;;;;;;;9.63;5.53;;;20.70;49.70;;;;;;6246116;28;20545;-67
2021/12/16 08:11:38;;;;;;;16.27;5.32;;;20.70;49.00;;;;;;6245052;28;20494;-68
2021/12/16 08:14:40;;;;;;;9.60;5.30;;;20.70;49.20;;;;;;6259350;28;20071;-68
2021/12/16 08:17:41;;;;;;;12.07;4.65;;;20.70;49.50;;;;;;6246799;28;20033;-69
2021/12/16 08:20:42;;;;;;;7.75;4.25;;;20.70;49.70;;;;;;6244489;28;20044;-68
2021/12/16 08:23:44;;;;;;;10.05;4.72;;;20.80;49.80;;;;;;6255924;28;20061;-69
2021/12/16 08:26:47;;;;;;;8.25;4.40;;;20.80;50.00;;;;;;6251959;28;20017;-69
2021/12/16 08:29:48;;;;;;;9.52;4.03;;;20.70;49.90;;;;;;6244487;28;20436;-68
2021/12/16 08:32:48;;;;;;;10.65;4.30;;;20.70;50.00;;;;;;6244006;28;20037;-69
2021/12/16 08:35:51;;;;;;;9.73;3.58;;;20.70;50.00;;;;;;6261985;28;20040;-66
2021/12/16 08:38:52;;;;;;;7.80;4.10;;;20.70;50.00;;;;;;6267283;28;20033;-67
2021/12/16 08:41:55;;;;;;;8.52;4.13;;;20.80;50.20;;;;;;6268898;28;20568;-66
2021/12/16 08:44:56;;;;;;;7.38;3.80;;;20.80;50.20;;;;;;6268784;28;20052;-66
2021/12/16 08:47:57;;;;;;;9.85;3.67;;;20.80;50.20;;;;;;6245292;28;20391;-66
2021/12/16 08:50:58;;;;;;;7.57;3.97;;;20.80;50.20;;;;;;6265574;28;20641;-69
2021/12/16 08:53:59;;;;;;;7.38;3.97;;;20.80;50.20;;;;;;6267260;28;20029;-69
2021/12/16 08:57:00;;;;;;;9.20;3.67;;;20.80;50.30;;;;;;6263687;28;20029;-67
2021/12/16 09:00:08;;;;;;;6.00;3.78;;;20.80;50.20;;;;;;6250531;28;20129;-67
2021/12/16 09:03:09;;;;;;;8.05;3.85;;;20.80;50.30;;;;;;6258215;28;20474;-69
2021/12/16 09:06:10;;;;;;;7.35;4.15;;;20.80;50.30;;;;;;6269768;28;20045;-66
2021/12/16 09:09:11;;;;;;;9.88;3.88;;;20.80;50.30;;;;;;6257024;28;20031;-67
2021/12/16 09:12:38;;;;;;;6.88;3.67;;;20.80;50.30;;;;;;6244814;28;20025;-69
2021/12/16 09:15:44;;;;;;;7.90;4.10;;;20.80;50.40;;;;;;6244119;28;20084;-66
2021/12/16 09:18:45;;;;;;;10.52;4.55;;;20.80;50.40;;;;;;6242377;28;20029;-67
2021/12/16 09:21:46;;;;;;;14.30;4.32;;;20.80;50.20;;;;;;6243575;28;20430;-71
2021/12/16 09:24:48;;;;;;;9.15;4.35;;;20.70;49.50;;;;;;6265060;28;20028;-71
2021/12/16 09:27:49;;;;;;;9.43;3.80;;;20.70;49.10;;;;;;6267667;28;20078;-71
2021/12/16 09:30:50;;;;;;;7.13;4.13;;;20.70;49.20;;;;;;6260018;28;20021;-70
2021/12/16 09:33:54;;;;;;;10.23;3.97;;;20.80;49.50;;;;;;6241752;28;20031;-71
2021/12/16 09:36:55;;;;;;;6.80;3.40;;;20.80;49.60;;;;;;6250435;28;20028;-69
2021/12/16 09:39:57;;;;;;;5.80;3.63;;;20.80;49.70;;;;;;6266586;28;20529;-69
2021/12/16 09:42:57;;;;;;;8.45;3.85;;;20.80;49.80;;;;;;6259561;28;20017;-68
2021/12/16 09:46:03;;;;;;;9.05;3.70;;;20.80;49.80;;;;;;6242077;28;20021;-68
2021/12/16 09:49:04;;;;;;;7.07;3.92;;;20.80;50.00;;;;;;6241130;28;20025;-68
2021/12/16 09:52:07;;;;;;;4.63;3.30;;;20.80;50.00;;;;;;6249518;28;20489;-68
2021/12/16 09:55:08;;;;;;;8.70;3.85;;;20.80;50.10;;;;;;6253368;28;20030;-68
2021/12/16 09:58:11;;;;;;;7.25;4.32;;;20.80;50.10;;;;;;6248566;28;20079;-69
2021/12/16 10:01:13;;;;;;;7.50;3.90;;;20.80;50.10;;;;;;6241085;28;20026;-68
2021/12/16 10:04:19;;;;;;;6.93;3.80;;;20.80;50.10;;;;;;6245463;28;20459;-67
2021/12/16 10:07:24;;;;;;;10.95;3.83;;;20.80;50.20;;;;;;6242681;28;20026;-67
2021/12/16 10:10:26;;;;;;;6.97;3.97;;;20.80;50.10;;;;;;6242691;28;20025;-67
2021/12/16 10:20:15;;;;;;;9.75;3.80;;;20.70;49.40;;;;;;6245789;28;20049;-68
2021/12/16 10:23:29;;;;;;;14.13;4.72;;;20.70;49.00;;;;;;6247467;28;20025;-68
2021/12/16 10:26:30;;;;;;;8.90;3.80;;;20.70;48.70;;;;;;6265966;28;20082;-67
2021/12/16 10:29:39;;;;;;;8.02;3.78;;;20.70;48.70;;;;;;6265144;28;20478;-67
2021/12/16 10:32:45;;;;;;;10.00;4.15;;;20.60;48.40;;;;;;6255515;28;20034;-69
2021/12/16 10:35:48;;;;;;;9.85;3.78;;;20.60;48.30;;;;;;6265953;28;20021;-67
2021/12/16 10:38:55;;;;;;;9.93;3.83;;;20.60;48.20;;;;;;6264679;28;20025;-67
2021/12/16 10:42:04;;;;;;;7.60;3.40;;;20.60;48.20;;;;;;6265336;28;20032;-67
2021/12/16 10:45:05;;;;;;;15.70;3.38;;;20.60;48.10;;;;;;6248732;28;20026;-66
2021/12/16 10:48:14;;;;;;;10.90;3.75;;;20.60;48.00;;;;;;6246556;28;20078;-67
2021/12/16 10:51:21;;;;;;;8.90;3.17;;;20.60;47.90;;;;;;6242359;28;20037;-69
2021/12/16 10:54:25;;;;;;;6.60;2.83;;;20.60;47.90;;;;;;6256531;28;20034;-68
2021/12/16 10:57:30;;;;;;;11.50;3.28;;;20.60;47.70;;;;;;6246937;28;20324;-68
2021/12/16 11:00:34;;;;;;;5.87;2.50;;;20.60;47.90;;;;;;6264669;28;20033;-68
2021/12/16 11:03:43;;;;;;;12.10;2.90;;;20.70;48.20;;;;;;6261786;28;20017;-68
2021/12/16 11:06:53;;;;;;;7.05;2.60;;;20.70;48.40;;;;;;6262964;28;20082;-69
2021/12/16 11:10:09;;;;;;;3.78;2.20;;;20.70;48.60;;;;;;6240261;28;20030;-69
2021/12/16 11:13:11;;;;;;;4.68;2.65;;;20.70;48.70;;;;;;6243290;28;20034;-68
2021/12/16 11:16:12;;;;;;;5.30;2.72;;;20.70;48.80;;;;;;6241363;28;20033;-69
2021/12/16 11:19:47;;;;;;;4.65;2.80;;;20.70;48.90;;;;;;6251609;28;20545;-69
2021/12/16 11:22:55;;;;;;;4.13;2.30;;;20.70;48.90;;;;;;6266248;28;20017;-71
2021/12/16 11:26:06;;;;;;;4.00;2.30;;;20.70;49.00;;;;;;6266832;28;20546;-69
2021/12/16 11:29:10;;;;;;;3.88;2.10;;;20.70;49.00;;;;;;6260091;28;20119;-68
2021/12/16 11:32:35;;;;;;;8.93;2.47;;;20.70;49.00;;;;;;6259601;28;20436;-68
2021/12/16 11:35:41;;;;;;;5.97;2.58;;;20.70;49.10;;;;;;6270689;28;20021;-68
2021/12/16 11:38:48;;;;;;;7.13;2.20;;;20.70;49.10;;;;;;6269465;28;20410;-68
2021/12/16 11:42:00;;;;;;;4.43;2.20;;;20.70;49.20;;;;;;6261765;28;20104;-68
2021/12/16 11:45:00;;;;;;;4.68;2.17;;;20.70;49.30;;;;;;6265571;28;20408;-68
2021/12/16 11:48:01;;;;;;;4.47;2.20;;;20.70;49.30;;;;;;6261893;28;20021;-68
2021/12/16 11:51:09;;;;;;;4.60;2.25;;;20.70;49.30;;;;;;6265596;28;20037;-69
2021/12/16 11:54:25;;;;;;;4.53;2.47;;;20.70;49.40;;;;;;6255072;28;20075;-69
2021/12/16 11:57:31;;;;;;;;;;;20.70;49.40;;;;;;6259807;28;20079;-71
2021/12/16 12:00:40;;;;;;;6.22;2.72;;;20.70;49.40;;;;;;6256912;28;19924;-71
2021/12/16 12:03:40;;;;;;;4.78;2.50;;;20.80;49.50;;;;;;6248517;28;20116;-69
2021/12/16 12:06:44;;;;;;;4.13;2.25;;;20.70;49.50;;;;;;6244931;28;20098;-68
2021/12/16 12:09:49;;;;;;;5.78;2.97;;;20.70;49.50;;;;;;6259252;28;20026;-69
2021/12/16 12:12:49;;;;;;;4.27;2.33;;;20.80;49.60;;;;;;6248663;28;20033;-68
2021/12/16 12:15:55;;;;;;;3.78;2.20;;;20.80;49.50;;;;;;6268420;28;20540;-68
2021/12/16 12:19:17;;;;;;;4.95;2.72;;;20.70;49.50;;;;;;6266383;28;20025;-68
2021/12/16 12:22:23;;;;;;;5.30;2.63;;;20.80;49.60;;;;;;6243382;28;20018;-69
2021/12/16 12:25:24;;;;;;;4.00;2.58;;;20.80;49.60;;;;;;6267020;28;20118;-69
2021/12/16 12:28:25;;;;;;;4.85;2.40;;;20.70;49.50;;;;;;6260663;28;20026;-69
2021/12/16 12:31:32;;;;;;;3.40;2.47;;;20.80;49.60;;;;;;6249405;28;20033;-69
2021/12/16 12:34:35;;;;;;;3.42;2.42;;;20.80;49.60;;;;;;6258692;28;20033;-68
2021/12/16 12:37:39;;;;;;;4.05;2.60;;;20.80;49.60;;;;;;6252816;28;20021;-68
2021/12/16 12:40:40;;;;;;;4.65;2.90;;;20.80;49.60;;;;;;6268296;28;20391;-68
2021/12/16 12:43:41;;;;;;;3.60;2.72;;;20.80;49.60;;;;;;6261555;28;20159;-69
2021/12/16 12:46:42;;;;;;;5.57;2.92;;;20.80;49.70;;;;;;6256093;28;20433;-68
2021/12/16 12:49:44;;;;;;;4.40;2.63;;;20.80;49.60;;;;;;6253855;28;20867;-69
2021/12/16 12:52:49;;;;;;;4.60;2.70;;;20.70;49.60;;;;;;6251191;28;20547;-68
2021/12/16 12:55:54;;;;;;;3.90;2.63;;;20.80;49.70;;;;;;6245583;28;20029;-68
2021/12/16 12:58:59;;;;;;;3.00;2.42;;;20.80;49.70;;;;;;6263269;28;20032;-69
2021/12/16 13:02:00;;;;;;;7.18;2.80;;;20.70;49.60;;;;;;6259307;28;20071;-68
2021/12/16 13:05:21;;;;;;;4.97;2.72;;;20.80;49.70;;;;;;6266864;28;20025;-69
2021/12/16 13:08:33;;;;;;;5.53;2.45;;;20.70;49.70;;;;;;6267594;28;20044;-69
2021/12/16 13:11:33;;;;;;;4.30;2.80;;;20.80;49.80;;;;;;6268609;28;20530;-68
2021/12/16 13:14:49;;;;;;;5.38;3.03;;;20.80;49.80;;;;;;6268103;28;20055;-68
2021/12/16 13:24:43;;;;;;;4.10;2.63;;;20.80;49.80;;;;;;6261828;28;20394;-68
2021/12/16 13:27:46;;;;;;;8.95;3.30;;;20.80;49.80;;;;;;6262695;28;20116;-71
2021/12/16 13:30:55;;;;;;;4.15;2.75;;;20.80;49.90;;;;;;6243325;28;20100;-69
2021/12/16 13:33:58;;;;;;;7.97;3.00;;;20.80;49.80;;;;;;6262300;28;20033;-68
2021/12/16 13:37:11;;;;;;;3.80;2.85;;;20.80;49.80;;;;;;6258384;28;20028;-68
2021/12/16 13:40:14;;;;;;;5.25;3.15;;;20.80;49.90;;;;;;6242832;28;20061;-69
2021/12/16 13:43:19;;;;;;;6.82;3.28;;;20.80;49.90;;;;;;6254332;28;20531;-68
2021/12/16 14:04:35;;;;;;;8.85;3.20;;;20.80;50.10;;;;;;6242744;28;20233;-69
2021/12/16 14:10:34;;;;;;;4.82;3.05;;;20.80;50.10;;;;;;6242362;28;20080;-68
2021/12/16 14:23:23;;;;;;;4.68;3.40;;;20.80;50.20;;;;;;6265181;28;20017;-68
2021/12/16 14:26:49;;;;;;;4.80;3.22;;;20.80;50.80;;;;;;6259114;28;20087;-69
2021/12/16 14:43:14;;;;;;;5.57;3.42;;;20.80;50.20;;;;;;6257130;28;20029;-68
2021/12/16 14:46:26;;;;;;;7.35;3.05;;;20.80;50.20;;;;;;6260374;28;20036;-68
2021/12/16 14:49:37;;;;;;;5.63;3.10;;;20.80;50.20;;;;;;6258508;28;20059;-68
2021/12/16 14:52:38;;;;;;;5.07;2.90;;;20.80;50.20;;;;;;6237309;28;20453;-68
2021/12/16 14:55:39;;;;;;;4.82;3.00;;;20.80;50.20;;;;;;6259949;28;20080;-68
2021/12/16 14:58:42;;;;;;;4.03;3.00;;;20.80;50.20;;;;;;6258483;28;20052;-68
2021/12/16 15:01:48;;;;;;;3.97;3.17;;;20.80;50.20;;;;;;6268666;28;20036;-68
2021/12/16 15:04:48;;;;;;;4.30;3.10;;;20.80;50.20;;;;;;6270735;28;20021;-68
2021/12/16 15:07:49;;;;;;;4.90;3.30;;;20.80;50.20;;;;;;6250864;28;20030;-68
2021/12/16 15:10:51;;;;;;;4.43;2.97;;;20.80;50.20;;;;;;6246760;28;20528;-68
2021/12/16 15:13:57;;;;;;;5.10;2.90;;;20.80;50.20;;;;;;6263635;28;20099;-68
2021/12/16 15:17:13;;;;;;;4.05;2.58;;;20.80;50.20;;;;;;6258076;28;20387;-68
2021/12/16 15:40:31;;;;;;;4.47;2.97;;;20.80;50.30;;;;;;6270107;28;20102;-65
2021/12/16 15:43:32;;;;;;;7.25;3.20;;;20.80;50.30;;;;;;6254998;28;20025;-65
2021/12/16 15:46:33;;;;;;;7.47;4.03;;;20.80;50.20;;;;;;6264027;28;20025;-68
2021/12/16 15:49:34;;;;;;;9.93;5.75;;;20.80;49.90;;;;;;6268515;28;20029;-68
2021/12/16 15:52:48;;;;;;;7.28;4.55;;;20.70;48.70;;;;;;6259193;28;20538;-66
2021/12/16 15:56:20;;;;;;;7.95;4.40;;;20.80;48.80;;;;;;6268313;28;20024;-68
2021/12/16 15:59:28;;;;;;;11.30;4.47;;;20.80;49.10;;;;;;6256706;28;20088;-68
2021/12/16 16:02:32;;;;;;;15.40;4.57;;;20.70;48.90;;;;;;6262088;28;20037;-68
2021/12/16 16:05:39;;;;;;;6.53;3.30;;;20.70;48.00;;;;;;6245353;28;20025;-68
2021/12/16 16:08:46;;;;;;;11.50;3.70;;;20.70;47.30;;;;;;6246913;28;20040;-68
2021/12/16 16:11:51;;;;;;;10.32;3.78;;;20.70;47.80;;;;;;6244804;28;20177;-68
2021/12/16 16:14:59;;;;;;;10.63;3.25;;;20.80;48.30;;;;;;6242365;28;20517;-68
2021/12/16 16:18:12;;;;;;;10.10;4.03;;;20.80;48.60;;;;;;6262846;28;20037;-67
2021/12/16 16:21:19;;;;;;;7.53;3.25;;;20.80;48.70;;;;;;6249175;28;20025;-68
2021/12/16 16:24:32;;;;;;;5.88;3.17;;;20.80;48.80;;;;;;6263565;28;20021;-69
2021/12/16 16:27:33;;;;;;;6.47;3.35;;;20.80;48.90;;;;;;6259254;28;20025;-68
2021/12/16 16:30:35;;;;;;;7.22;3.50;;;20.80;49.00;;;;;;6256388;28;20359;-68
2021/12/16 16:33:36;;;;;;;5.32;3.15;;;20.80;49.00;;;;;;6243221;28;20032;-68
2021/12/16 16:36:43;;;;;;;5.85;3.30;;;20.80;49.10;;;;;;6243300;28;20116;-68
2021/12/16 16:39:51;;;;;;;8.13;3.45;;;20.80;49.10;;;;;;6261835;28;20041;-66
2021/12/16 16:42:52;;;;;;;6.95;3.05;;;20.80;49.10;;;;;;6269295;28;20025;-66
2021/12/16 16:45:57;;;;;;;10.70;3.38;;;20.80;49.20;;;;;;6249240;28;20029;-66
2021/12/16 16:52:04;;;;;;;5.85;2.78;;;20.70;47.50;;;;;;6260011;28;20544;-66
2021/12/16 16:55:15;;;;;;;6.03;2.70;;;20.70;47.00;;;;;;6244752;28;20470;-66
2021/12/16 16:58:16;;;;;;;7.18;2.63;;;20.70;47.40;;;;;;6259093;28;20039;-66
2021/12/16 17:01:17;;;;;;;6.35;3.10;;;20.70;47.80;;;;;;6249947;28;20025;-66
2021/12/16 17:04:18;;;;;;;5.80;2.90;;;20.70;48.00;;;;;;6266621;28;20479;-66
2021/12/16 17:07:19;;;;;;;8.32;3.47;;;20.80;48.20;;;;;;6262656;28;20028;-66
2021/12/16 17:10:29;;;;;;;7.00;2.97;;;20.80;48.40;;;;;;6251897;28;20516;-65
2021/12/16 17:17:20;;;;;;;6.68;2.92;;;20.80;48.60;;;;;;6265862;28;20071;-66
2021/12/16 17:20:20;;;;;;;6.43;2.70;;;20.80;48.70;;;;;;6253468;28;20572;-68
2021/12/16 17:23:25;;;;;;;5.47;3.25;;;20.80;48.70;;;;;;6242421;28;20116;-66
2021/12/16 17:26:33;;;;;;;6.35;2.80;;;20.70;48.80;;;;;;6236753;28;20025;-65
2021/12/16 17:29:50;;;;;;;4.93;2.63;;;20.80;48.90;;;;;;6254833;28;20353;-65
2021/12/16 17:32:52;;;;;;;6.93;3.08;;;20.80;48.90;;;;;;6239121;28;20029;-69
2021/12/16 17:35:54;;;;;;;7.20;2.72;;;20.80;49.00;;;;;;6241302;28;20029;-68
2021/12/16 17:38:54;;;;;;;8.10;3.15;;;20.80;49.10;;;;;;6232642;28;20033;-67
2021/12/16 17:42:01;;;;;;;4.38;2.55;;;20.70;49.10;;;;;;6244202;28;20055;-65
2021/12/16 17:45:10;;;;;;;6.80;2.88;;;20.70;48.50;;;;;;6261997;28;20021;-65
2021/12/16 17:48:14;;;;;;;10.27;3.75;;;20.60;47.50;;;;;;6258074;28;20036;-66
2021/12/16 17:51:27;;;;;;;10.63;4.37;;;20.60;47.00;;;;;;6262521;28;20025;-68
2021/12/16 17:54:28;;;;;;;12.32;4.72;;;20.60;46.50;;;;;;6255053;28;20025;-66
2021/12/16 17:57:33;;;;;;;9.90;3.50;;;20.60;47.00;;;;;;6249351;28;20033;-66
2021/12/16 18:00:54;;;;;;;8.63;3.05;;;20.60;45.40;;;;;;6251556;28;20396;-65
2021/12/16 18:03:58;;;;;;;9.88;3.67;;;20.60;45.50;;;;;;6238623;28;20021;-66
2021/12/16 18:07:05;;;;;;;10.75;3.10;;;20.60;44.60;;;;;;6242708;28;20463;-66
2021/12/16 18:10:06;;;;;;;10.88;3.17;;;20.60;45.10;;;;;;6257284;28;20094;-65
2021/12/16 18:13:07;;;;;;;8.38;3.00;;;20.60;45.70;;;;;;6253537;28;20029;-66
2021/12/16 18:16:14;;;;;;;6.50;2.70;;;20.60;46.00;;;;;;6265591;28;20417;-66
2021/12/16 18:19:55;;;;;;;7.50;3.05;;;20.60;46.30;;;;;;6259629;28;20026;-66
2021/12/16 18:22:59;;;;;;;6.35;2.90;;;20.60;46.50;;;;;;6237418;28;20034;-65
2021/12/16 18:26:04;;;;;;;5.57;2.80;;;20.70;46.80;;;;;;6246374;28;20136;-66
2021/12/16 18:29:08;;;;;;;9.15;2.83;;;20.70;46.90;;;;;;6247386;28;20119;-66
2021/12/16 18:32:09;;;;;;;7.22;2.78;;;20.70;47.00;;;;;;6238786;28;20372;-66
2021/12/16 18:35:15;;;;;;;8.57;2.88;;;20.70;47.20;;;;;;6257019;28;20025;-66
2021/12/16 18:38:28;;;;;;;8.48;2.95;;;20.70;47.20;;;;;;6240173;28;20100;-67
2021/12/16 18:41:34;;;;;;;7.55;2.88;;;20.70;47.30;;;;;;6244909;28;20108;-65
2021/12/16 18:44:40;;;;;;;12.95;3.05;;;20.70;47.50;;;;;;6267765;28;20029;-66
2021/12/16 18:48:13;;;;;;;8.60;2.80;;;20.70;47.10;;;;;;6253685;28;20013;-65
2021/12/16 18:51:45;;;;;;;5.72;2.85;;;20.70;46.90;;;;;;6242143;28;20030;-65
2021/12/16 18:54:45;;;;;;;5.30;2.72;;;20.70;47.10;;;;;;6267172;28;20029;-65
2021/12/16 18:57:46;;;;;;;6.93;3.00;;;20.70;47.20;;;;;;6266503;28;20056;-65
2021/12/16 19:00:50;;;;;;;5.45;2.65;;;20.70;47.40;;;;;;6266746;28;20037;-65
2021/12/16 19:03:51;;;;;;;5.73;2.77;;;20.70;47.40;;;;;;6266974;28;20022;-65
2021/12/16 19:06:54;;;;;;;7.93;2.55;;;20.70;47.50;;;;;;6266315;28;20060;-65
2021/12/16 19:09:57;;;;;;;4.47;2.30;;;20.70;47.50;;;;;;6266609;28;20079;-66
2021/12/16 19:12:58;;;;;;;5.32;2.50;;;20.70;47.50;;;;;;6266547;28;20481;-65
2021/12/16 19:16:05;;;;;;;4.10;2.35;;;20.70;47.60;;;;;;6266790;28;20037;-66
2021/12/16 19:19:06;;;;;;;4.50;2.40;;;20.70;47.60;;;;;;6263142;28;20033;-65
2021/12/16 19:22:11;;;;;;;4.68;2.25;;;20.70;47.60;;;;;;6244126;28;20021;-66
2021/12/16 19:25:12;;;;;;;5.43;2.70;;;20.70;47.70;;;;;;6261607;28;20029;-65
2021/12/16 19:28:12;;;;;;;5.32;2.65;;;20.70;47.70;;;;;;6261798;28;20337;-65